Time;durP1;ratioP1;P1;durP2;ratioP2;P2;SDS_P1;SDS_P2;PMS_P1;PMS_P2;Temp;Humidity;BMP_temperature;BMP_pressure;BME280_temperature;BME280_humidity;BME280_pressure;Samples;Min_cycle;Max_cycle;Signal;HPM_P1;HPM_P2
2022/10/18 00:00:05;;;;;;;1.30;1.30;;;18.00;47.50;;;;;;4953805;28;20261;-77
2022/10/18 00:02:31;;;;;;;1.57;1.40;;;17.90;47.90;;;;;;4949251;29;20184;-77
2022/10/18 00:04:56;;;;;;;1.97;1.40;;;17.90;47.40;;;;;;4953862;28;20469;-77
2022/10/18 00:07:22;;;;;;;1.60;1.30;;;17.90;47.30;;;;;;4945507;28;20704;-77
2022/10/18 00:09:48;;;;;;;1.37;1.33;;;17.90;47.10;;;;;;4954026;28;20186;-78
2022/10/18 00:12:13;;;;;;;1.40;1.13;;;17.80;47.80;;;;;;4951521;28;20191;-77
2022/10/18 00:14:39;;;;;;;1.30;1.20;;;17.70;47.80;;;;;;4953891;28;20211;-77
2022/10/18 00:17:04;;;;;;;2.67;1.77;;;17.70;47.90;;;;;;4952702;28;20204;-76
2022/10/18 00:19:30;;;;;;;1.53;1.33;;;17.70;48.10;;;;;;4948468;29;20176;-76
2022/10/18 00:21:55;;;;;;;1.40;1.40;;;17.70;47.80;;;;;;4951382;28;20245;-75
2022/10/18 00:24:21;;;;;;;1.50;1.47;;;17.50;48.60;;;;;;4943725;29;20186;-77
2022/10/18 00:26:47;;;;;;;1.83;1.57;;;17.40;48.90;;;;;;4952350;28;20639;-77
2022/10/18 00:29:14;;;;;;;1.40;1.20;;;17.50;48.10;;;;;;4953302;28;20189;-76
2022/10/18 00:31:40;;;;;;;1.50;1.40;;;17.50;47.90;;;;;;4953463;28;20269;-78
2022/10/18 00:34:10;;;;;;;1.63;1.37;;;17.60;47.70;;;;;;4951740;28;20554;-77
2022/10/18 00:36:36;;;;;;;3.03;1.73;;;17.50;47.90;;;;;;4950924;29;20237;-77
2022/10/18 00:39:04;;;;;;;1.50;1.30;;;17.50;48.60;;;;;;4944555;28;20810;-77
2022/10/18 00:41:32;;;;;;;1.30;1.10;;;17.50;48.10;;;;;;4950443;29;20202;-76
2022/10/18 00:44:26;;;;;;;2.37;1.53;;;17.50;48.10;;;;;;4947445;28;20577;-77
2022/10/18 00:46:55;;;;;;;1.30;1.30;;;17.60;48.10;;;;;;4952549;28;20829;-77
2022/10/18 00:49:25;;;;;;;1.30;1.07;;;17.40;47.80;;;;;;4953504;28;20440;-77
2022/10/18 00:51:58;;;;;;;1.83;1.60;;;17.40;48.70;;;;;;4953124;28;20830;-76
2022/10/18 00:54:27;;;;;;;1.40;1.30;;;17.30;48.50;;;;;;4951745;28;20467;-77
2022/10/18 00:56:52;;;;;;;1.70;1.57;;;17.40;48.10;;;;;;4945065;28;20522;-77
2022/10/18 00:59:19;;;;;;;4.57;2.47;;;17.30;48.80;;;;;;4946563;28;20471;-77
2022/10/18 01:01:45;;;;;;;1.43;1.33;;;17.30;48.40;;;;;;4953273;28;20173;-77
2022/10/18 01:04:12;;;;;;;2.80;1.50;;;17.30;48.80;;;;;;4953089;28;20438;-78
2022/10/18 01:06:49;;;;;;;1.40;1.40;;;17.40;49.10;;;;;;4951867;28;20210;-77
2022/10/18 01:09:39;;;;;;;1.30;1.20;;;17.40;48.40;;;;;;4953005;28;20465;-77
2022/10/18 01:12:32;;;;;;;1.30;1.17;;;17.30;49.20;;;;;;4951583;28;20438;-77
2022/10/18 01:15:15;;;;;;;1.30;1.20;;;17.30;48.20;;;;;;4945078;28;20525;-77
2022/10/18 01:18:04;;;;;;;1.40;1.30;;;17.20;49.10;;;;;;4945300;29;20458;-77
2022/10/18 01:20:54;;;;;;;1.30;1.20;;;17.40;48.50;;;;;;4953087;28;20876;-77
2022/10/18 01:23:41;;;;;;;1.50;1.33;;;17.50;48.70;;;;;;4952135;28;20430;-77
2022/10/18 01:26:41;;;;;;;1.40;1.30;;;17.40;49.20;;;;;;4952023;28;20451;-77
2022/10/18 01:29:45;;;;;;;1.60;1.47;;;17.50;49.30;;;;;;4949488;29;20930;-77
2022/10/18 01:32:43;;;;;;;1.53;1.40;;;17.40;49.30;;;;;;4950008;29;20434;-77
2022/10/18 01:35:17;;;;;;;1.43;1.37;;;17.10;51.50;;;;;;4928645;29;20450;-77
2022/10/18 01:37:46;;;;;;;1.30;1.20;;;17.30;51.50;;;;;;4936214;29;20439;-75
2022/10/18 01:40:16;;;;;;;1.93;1.83;;;17.50;50.20;;;;;;4933499;29;20443;-77
2022/10/18 01:42:44;;;;;;;1.30;1.27;;;17.60;49.70;;;;;;4929686;29;20432;-76
2022/10/18 01:45:12;;;;;;;2.13;1.70;;;17.80;49.70;;;;;;4935581;29;20436;-77
2022/10/18 01:47:39;;;;;;;1.63;1.50;;;17.90;49.70;;;;;;4930196;29;20669;-77
2022/10/18 01:50:05;;;;;;;2.87;1.97;;;17.90;49.20;;;;;;4935633;29;20440;-77
2022/10/18 01:52:31;;;;;;;1.30;1.23;;;17.90;49.60;;;;;;4940201;28;20424;-76
2022/10/18 01:54:59;;;;;;;1.30;1.10;;;17.90;49.10;;;;;;4930846;29;20502;-76
2022/10/18 01:58:08;;;;;;;2.07;1.60;;;17.90;49.60;;;;;;4931392;28;20242;-76
2022/10/18 02:00:41;;;;;;;1.30;1.30;;;17.90;49.00;;;;;;4926501;29;20467;-77
2022/10/18 02:03:25;;;;;;;1.50;1.40;;;17.90;49.80;;;;;;4942815;29;20450;-76
2022/10/18 02:05:57;;;;;;;1.30;1.30;;;17.80;50.10;;;;;;4937909;29;20977;-77
2022/10/18 02:08:45;;;;;;;1.30;1.30;;;18.10;49.00;;;;;;4934268;29;20487;-77
2022/10/18 02:11:14;;;;;;;1.60;1.43;;;18.00;49.90;;;;;;4943687;29;21004;-76
2022/10/18 02:13:50;;;;;;;1.53;1.43;;;17.80;49.70;;;;;;4955314;29;20458;-77
2022/10/18 02:16:21;;;;;;;1.70;1.60;;;17.90;49.60;;;;;;4977576;22;20484;-69
2022/10/18 02:18:56;;;;;;;1.60;1.50;;;17.90;50.20;;;;;;4999065;28;20471;-68
2022/10/18 02:21:24;;;;;;;1.40;1.40;;;17.90;49.60;;;;;;4992806;28;20434;-69
2022/10/18 02:23:51;;;;;;;1.47;1.40;;;17.70;50.50;;;;;;4993427;28;20819;-68
2022/10/18 02:26:17;;;;;;;1.50;1.50;;;17.90;50.10;;;;;;4985698;28;20449;-68
2022/10/18 02:28:44;;;;;;;1.40;1.40;;;17.60;50.40;;;;;;4986415;28;20429;-68
2022/10/18 02:31:20;;;;;;;2.00;1.90;;;17.60;50.10;;;;;;4992051;28;20825;-68
2022/10/18 02:34:00;;;;;;;2.17;1.67;;;17.30;52.10;;;;;;5001908;28;20487;-68
2022/10/18 02:37:00;;;;;;;1.83;1.40;;;17.40;51.20;;;;;;4993103;28;20488;-69
2022/10/18 02:39:53;;;;;;;1.30;1.20;;;16.80;54.90;;;;;;4990937;28;20538;-69
2022/10/18 02:42:22;;;;;;;1.93;1.73;;;17.30;52.80;;;;;;4990671;28;20433;-69
2022/10/18 02:45:15;;;;;;;1.50;1.40;;;17.10;53.40;;;;;;4987920;28;20488;-68
2022/10/18 02:47:46;;;;;;;5.87;1.60;;;16.60;55.40;;;;;;4987218;28;20432;-68
2022/10/18 02:50:23;;;;;;;1.93;1.50;;;16.60;56.00;;;;;;4990872;28;20416;-68
2022/10/18 02:52:49;;;;;;;1.30;1.10;;;17.20;53.80;;;;;;4992213;28;20515;-68
2022/10/18 02:55:20;;;;;;;1.30;1.20;;;17.50;52.70;;;;;;4992544;28;20928;-68
2022/10/18 02:57:56;;;;;;;1.30;1.20;;;17.80;50.70;;;;;;4990966;28;20529;-68
2022/10/18 03:00:40;;;;;;;1.30;1.13;;;17.90;49.50;;;;;;4994013;28;20482;-68
2022/10/18 03:03:08;;;;;;;1.50;1.47;;;18.20;47.80;;;;;;4993640;28;20464;-69
2022/10/18 03:05:49;;;;;;;1.30;1.20;;;18.30;47.90;;;;;;4989294;28;20483;-69
2022/10/18 03:08:42;;;;;;;1.60;1.50;;;18.30;48.40;;;;;;4991463;28;20428;-69
2022/10/18 03:11:21;;;;;;;1.40;1.37;;;18.40;48.20;;;;;;4993424;28;20425;-69
2022/10/18 03:13:50;;;;;;;1.50;1.30;;;18.20;49.10;;;;;;4999689;28;20528;-69
2022/10/18 03:16:16;;;;;;;1.97;1.23;;;18.30;49.10;;;;;;5006005;28;20477;-68
2022/10/18 03:18:45;;;;;;;2.47;1.50;;;18.30;49.20;;;;;;4992669;28;20540;-69
2022/10/18 03:21:11;;;;;;;1.30;1.30;;;18.20;49.50;;;;;;4993365;28;20421;-69
2022/10/18 03:23:37;;;;;;;1.67;1.30;;;18.20;49.50;;;;;;4990803;28;20441;-70
2022/10/18 03:26:05;;;;;;;1.73;1.60;;;18.10;49.80;;;;;;4986896;28;20210;-69
2022/10/18 03:28:31;;;;;;;1.50;1.43;;;17.80;51.20;;;;;;4985610;28;20261;-69
2022/10/18 03:31:01;;;;;;;1.60;1.30;;;18.00;50.50;;;;;;4992958;28;20409;-68
2022/10/18 03:33:28;;;;;;;1.30;1.20;;;17.80;51.80;;;;;;4988728;28;20479;-68
2022/10/18 03:35:54;;;;;;;1.30;1.00;;;18.00;50.70;;;;;;4990715;28;20561;-69
2022/10/18 03:38:20;;;;;;;1.30;1.30;;;17.40;53.00;;;;;;4988597;28;20868;-69
2022/10/18 03:40:46;;;;;;;1.70;1.60;;;17.80;51.90;;;;;;4988419;28;20528;-68
2022/10/18 03:43:12;;;;;;;1.50;1.50;;;17.40;53.30;;;;;;4973620;28;20416;-68
2022/10/18 03:45:39;;;;;;;1.83;1.40;;;17.80;52.10;;;;;;4989394;28;20819;-68
2022/10/18 03:48:05;;;;;;;1.93;1.40;;;17.80;52.30;;;;;;4992469;28;20435;-68
2022/10/18 03:50:31;;;;;;;1.40;1.40;;;17.70;51.70;;;;;;4990722;28;20443;-68
2022/10/18 03:52:57;;;;;;;2.40;1.50;;;18.00;51.30;;;;;;4982851;28;20794;-68
2022/10/18 03:55:23;;;;;;;1.30;1.30;;;18.00;51.80;;;;;;4984564;28;20440;-68
2022/10/18 03:57:49;;;;;;;1.40;1.27;;;18.40;49.50;;;;;;4979288;28;20519;-68
2022/10/18 04:00:15;;;;;;;2.00;1.40;;;18.30;47.90;;;;;;4986881;28;20512;-69
2022/10/18 04:02:41;;;;;;;1.83;1.30;;;18.00;49.90;;;;;;4986210;28;20807;-69
2022/10/18 04:05:08;;;;;;;1.67;1.47;;;18.50;48.90;;;;;;4986057;28;20419;-68
2022/10/18 04:07:35;;;;;;;1.30;1.10;;;18.60;47.90;;;;;;4984102;28;20477;-69
2022/10/18 04:10:04;;;;;;;1.43;1.40;;;18.40;48.70;;;;;;4986123;28;20425;-69
2022/10/18 04:12:30;;;;;;;1.30;1.30;;;18.10;50.60;;;;;;4985371;28;20514;-68
2022/10/18 04:14:58;;;;;;;1.40;1.30;;;18.10;50.40;;;;;;4983599;28;20469;-72
2022/10/18 04:17:27;;;;;;;2.60;1.47;;;18.60;47.80;;;;;;4988553;28;20475;-74
2022/10/18 04:19:52;;;;;;;1.50;1.30;;;18.70;47.30;;;;;;4986743;28;20810;-72
2022/10/18 04:22:18;;;;;;;1.30;1.27;;;18.60;48.00;;;;;;4980502;28;20439;-73
2022/10/18 04:24:44;;;;;;;1.60;1.40;;;18.50;48.80;;;;;;4987227;28;20986;-72
2022/10/18 04:27:13;;;;;;;1.30;1.20;;;18.50;48.50;;;;;;4990961;28;21025;-72
2022/10/18 04:29:39;;;;;;;1.60;1.40;;;18.30;49.10;;;;;;4989868;28;20417;-72
2022/10/18 04:32:05;;;;;;;1.30;1.30;;;18.30;49.20;;;;;;4989370;28;20860;-74
2022/10/18 04:34:36;;;;;;;1.93;1.53;;;18.50;48.90;;;;;;4991308;28;20550;-73
2022/10/18 04:37:10;;;;;;;1.30;1.20;;;18.50;48.30;;;;;;4990497;28;20461;-71
2022/10/18 04:39:38;;;;;;;1.50;1.40;;;18.50;48.30;;;;;;4987263;28;20489;-71
2022/10/18 04:42:07;;;;;;;1.30;1.27;;;18.40;49.10;;;;;;4996402;28;20435;-71
2022/10/18 04:44:51;;;;;;;1.40;1.27;;;18.30;48.70;;;;;;4986492;28;20459;-72
2022/10/18 04:47:25;;;;;;;1.53;1.50;;;18.30;48.90;;;;;;4990593;28;20453;-71
2022/10/18 04:49:53;;;;;;;1.53;1.50;;;18.30;48.20;;;;;;4987226;28;21094;-71
2022/10/18 04:52:37;;;;;;;1.50;1.40;;;18.30;48.90;;;;;;4991047;28;20444;-71
2022/10/18 04:55:10;;;;;;;3.83;1.67;;;18.40;48.30;;;;;;4987309;28;20496;-73
2022/10/18 04:57:36;;;;;;;3.10;1.73;;;18.40;48.50;;;;;;4989475;28;20435;-71
2022/10/18 05:00:10;;;;;;;3.53;1.73;;;18.30;49.70;;;;;;4990169;28;20439;-71
2022/10/18 05:02:36;;;;;;;1.67;1.60;;;18.30;48.90;;;;;;4985340;28;20304;-72
2022/10/18 05:05:03;;;;;;;1.63;1.40;;;18.40;48.60;;;;;;4987139;28;20528;-72
2022/10/18 05:07:35;;;;;;;1.30;1.20;;;18.10;49.20;;;;;;4980186;28;20460;-71
2022/10/18 05:10:01;;;;;;;2.63;2.10;;;17.90;50.90;;;;;;4987660;28;20960;-71
2022/10/18 05:12:27;;;;;;;1.80;1.53;;;18.00;50.50;;;;;;4987520;28;20429;-74
2022/10/18 05:14:55;;;;;;;1.50;1.30;;;17.50;51.60;;;;;;4984631;28;20464;-71
2022/10/18 05:17:21;;;;;;;1.60;1.40;;;16.70;55.60;;;;;;4987608;28;20550;-71
2022/10/18 05:19:47;;;;;;;1.60;1.37;;;17.00;56.50;;;;;;4992747;28;20432;-71
2022/10/18 05:22:13;;;;;;;2.60;2.00;;;17.50;53.40;;;;;;4991722;28;20455;-71
2022/10/18 05:24:39;;;;;;;1.93;1.57;;;17.90;51.60;;;;;;4986065;28;20444;-73
2022/10/18 05:27:05;;;;;;;1.50;1.30;;;18.00;50.30;;;;;;4991914;28;20431;-71
2022/10/18 05:29:31;;;;;;;2.13;1.60;;;18.10;49.70;;;;;;4990469;28;20531;-71
2022/10/18 05:31:57;;;;;;;1.60;1.50;;;18.20;49.10;;;;;;4989410;28;20448;-72
2022/10/18 05:34:23;;;;;;;1.83;1.40;;;18.10;49.50;;;;;;4988725;28;20476;-71
2022/10/18 05:36:52;;;;;;;2.43;1.60;;;18.20;49.50;;;;;;4987663;28;20519;-72
2022/10/18 05:39:21;;;;;;;1.30;1.20;;;18.20;49.50;;;;;;4990489;28;20438;-73
2022/10/18 05:41:52;;;;;;;1.30;1.20;;;18.10;49.50;;;;;;4994850;28;20408;-72
2022/10/18 05:44:18;;;;;;;2.43;1.47;;;18.00;50.00;;;;;;4995391;28;20911;-71
2022/10/18 05:46:45;;;;;;;1.60;1.43;;;17.90;50.20;;;;;;4995382;28;20425;-71
2022/10/18 05:49:14;;;;;;;1.60;1.57;;;17.90;50.30;;;;;;4994768;28;20459;-72
2022/10/18 05:51:43;;;;;;;1.30;1.30;;;18.00;49.90;;;;;;4994928;28;20419;-70
2022/10/18 05:54:11;;;;;;;1.63;1.27;;;18.10;49.80;;;;;;4994813;28;21042;-72
2022/10/18 05:56:41;;;;;;;1.30;1.30;;;18.30;49.10;;;;;;4994817;28;20448;-72
2022/10/18 05:59:10;;;;;;;1.30;1.23;;;18.30;48.30;;;;;;4985680;28;20442;-72
2022/10/18 06:01:41;;;;;;;1.40;1.37;;;18.10;48.80;;;;;;4993276;28;20444;-72
2022/10/18 06:04:09;;;;;;;1.50;1.30;;;18.10;48.90;;;;;;5005273;28;20443;-71
2022/10/18 06:06:36;;;;;;;1.57;1.40;;;18.10;48.70;;;;;;4992550;28;20979;-71
2022/10/18 06:09:03;;;;;;;1.70;1.30;;;18.10;49.00;;;;;;4995505;28;20436;-71
2022/10/18 06:11:29;;;;;;;1.43;1.27;;;17.90;49.80;;;;;;4993008;28;20440;-71
2022/10/18 06:13:58;;;;;;;1.80;1.40;;;18.00;49.00;;;;;;4994885;28;20552;-71
2022/10/18 06:16:26;;;;;;;1.90;1.50;;;18.00;49.20;;;;;;4991057;28;21729;-71
2022/10/18 06:18:56;;;;;;;1.30;1.13;;;18.10;48.90;;;;;;4992481;28;20438;-73
2022/10/18 06:21:24;;;;;;;1.67;1.50;;;18.00;49.30;;;;;;4993832;28;20405;-71
2022/10/18 06:23:55;;;;;;;1.40;1.27;;;17.80;50.40;;;;;;4994629;28;20416;-73
2022/10/18 06:26:21;;;;;;;1.60;1.50;;;17.70;50.90;;;;;;4994546;28;20440;-71
2022/10/18 06:28:48;;;;;;;2.37;1.50;;;17.90;50.50;;;;;;4994311;28;20434;-71
2022/10/18 06:31:14;;;;;;;1.30;1.10;;;17.90;50.60;;;;;;4995436;28;20437;-71
2022/10/18 06:33:40;;;;;;;1.87;1.50;;;17.90;50.90;;;;;;4992944;28;20464;-71
2022/10/18 06:36:10;;;;;;;1.60;1.50;;;17.70;52.10;;;;;;4994324;28;20445;-72
2022/10/18 06:38:37;;;;;;;1.30;1.20;;;18.00;51.60;;;;;;4994233;28;20416;-71
2022/10/18 06:41:04;;;;;;;1.40;1.40;;;18.20;50.00;;;;;;4993866;28;20433;-71
2022/10/18 06:43:30;;;;;;;1.50;1.10;;;18.50;49.20;;;;;;4992307;28;20812;-73
2022/10/18 06:45:56;;;;;;;1.40;1.20;;;18.50;49.70;;;;;;4989061;28;20527;-72
2022/10/18 06:48:22;;;;;;;1.30;1.10;;;18.60;50.40;;;;;;4990203;28;20433;-73
2022/10/18 06:50:57;;;;;;;1.50;1.40;;;18.70;50.00;;;;;;4989814;28;20941;-72
2022/10/18 06:53:24;;;;;;;1.73;1.63;;;18.80;49.00;;;;;;4999049;28;20979;-72
2022/10/18 06:55:51;;;;;;;1.40;1.30;;;18.90;49.30;;;;;;4990552;28;20468;-71
2022/10/18 06:58:17;;;;;;;1.30;1.20;;;19.10;49.20;;;;;;4984991;28;20430;-73
2022/10/18 07:00:44;;;;;;;1.50;1.40;;;19.30;49.70;;;;;;4989963;28;20498;-76
2022/10/18 07:03:11;;;;;;;1.60;1.40;;;19.40;47.40;;;;;;4993902;28;20488;-71
2022/10/18 07:05:37;;;;;;;1.50;1.50;;;18.70;49.60;;;;;;4993194;28;20425;-71
2022/10/18 07:08:03;;;;;;;1.30;1.30;;;18.30;52.60;;;;;;4996434;28;21000;-71
2022/10/18 07:10:31;;;;;;;7.90;2.00;;;18.10;53.00;;;;;;4995675;28;20949;-72
2022/10/18 07:13:01;;;;;;;1.40;1.30;;;18.30;51.80;;;;;;4992153;28;20949;-71
2022/10/18 07:15:27;;;;;;;1.70;1.50;;;18.30;52.10;;;;;;4993607;28;20775;-71
2022/10/18 07:17:55;;;;;;;1.87;1.60;;;17.80;53.50;;;;;;4999603;28;20429;-71
2022/10/18 07:20:22;;;;;;;1.70;1.40;;;17.60;55.60;;;;;;4993372;28;20411;-71
2022/10/18 07:22:50;;;;;;;1.30;1.27;;;17.80;55.70;;;;;;4993311;28;20469;-71
2022/10/18 07:25:16;;;;;;;1.87;1.73;;;18.10;53.50;;;;;;4993331;28;20917;-71
2022/10/18 07:27:42;;;;;;;1.40;1.33;;;18.60;52.00;;;;;;4995586;28;20936;-71
2022/10/18 07:30:10;;;;;;;1.93;1.53;;;19.40;49.90;;;;;;4993274;28;20434;-71
2022/10/18 07:32:36;;;;;;;3.03;1.43;;;19.70;46.40;;;;;;4992442;28;20429;-72
2022/10/18 07:35:03;;;;;;;2.20;1.57;;;20.00;45.80;;;;;;4990198;28;21025;-72
2022/10/18 07:37:32;;;;;;;1.60;1.53;;;19.90;46.00;;;;;;4988685;28;20440;-71
2022/10/18 07:40:16;;;;;;;1.47;1.47;;;19.90;46.30;;;;;;4997809;28;20459;-73
2022/10/18 07:42:52;;;;;;;1.37;1.33;;;19.70;46.80;;;;;;4992210;28;20489;-73
2022/10/18 07:45:18;;;;;;;1.30;1.23;;;19.90;47.40;;;;;;4990969;28;20814;-71
2022/10/18 07:47:46;;;;;;;1.60;1.50;;;19.40;47.40;;;;;;4991989;28;20419;-72
2022/10/18 07:50:13;;;;;;;1.43;1.43;;;19.60;47.50;;;;;;4991779;28;20486;-71
2022/10/18 07:52:41;;;;;;;1.30;1.30;;;19.60;46.40;;;;;;4992465;28;20417;-71
2022/10/18 07:55:07;;;;;;;3.93;1.93;;;19.40;47.50;;;;;;4991149;28;20467;-72
2022/10/18 07:57:33;;;;;;;1.87;1.70;;;19.30;47.70;;;;;;4991949;28;20426;-71
2022/10/18 07:59:59;;;;;;;1.70;1.70;;;19.10;49.00;;;;;;4991925;28;20441;-71
2022/10/18 08:02:25;;;;;;;1.60;1.40;;;19.30;48.50;;;;;;4991079;28;20421;-72
2022/10/18 08:04:51;;;;;;;1.63;1.57;;;19.50;47.30;;;;;;4989458;28;20950;-72
2022/10/18 08:07:17;;;;;;;1.77;1.50;;;20.10;46.00;;;;;;4990738;28;20631;-71
2022/10/18 08:09:43;;;;;;;1.93;1.50;;;20.60;45.60;;;;;;4991671;28;20500;-71
2022/10/18 08:12:08;;;;;;;2.00;1.90;;;20.90;43.50;;;;;;5001098;28;20853;-72
2022/10/18 08:14:37;;;;;;;2.50;1.57;;;20.90;42.50;;;;;;4998408;28;20470;-71
2022/10/18 08:17:06;;;;;;;2.00;1.50;;;21.10;42.70;;;;;;4991032;28;20243;-72
2022/10/18 08:19:32;;;;;;;1.30;1.20;;;21.20;42.10;;;;;;4990578;28;20493;-71
2022/10/18 08:21:58;;;;;;;1.50;1.50;;;21.20;42.00;;;;;;4989345;28;20442;-72
2022/10/18 08:24:23;;;;;;;1.63;1.60;;;21.30;42.10;;;;;;5025279;22;20460;-80
2022/10/18 08:26:49;;;;;;;1.73;1.37;;;21.50;41.00;;;;;;4993514;28;20428;-77
2022/10/18 08:29:15;;;;;;;2.17;1.50;;;21.70;40.50;;;;;;4991979;28;20518;-77
2022/10/18 08:31:40;;;;;;;2.80;1.93;;;21.20;42.30;;;;;;4990589;28;20177;-77
2022/10/18 08:34:06;;;;;;;1.87;1.57;;;21.30;41.60;;;;;;4991407;28;20242;-76
2022/10/18 08:36:32;;;;;;;1.97;1.60;;;21.30;41.30;;;;;;4992138;28;20204;-77
2022/10/18 08:38:57;;;;;;;1.47;1.47;;;20.90;42.50;;;;;;4992397;28;20174;-77
2022/10/18 08:42:01;;;;;;;1.30;1.30;;;20.70;43.50;;;;;;4991833;28;20176;-78
2022/10/18 08:44:30;;;;;;;1.50;1.37;;;20.80;43.10;;;;;;4950692;29;20537;-77
2022/10/18 08:47:17;;;;;;;2.00;1.50;;;21.00;42.60;;;;;;4951065;29;20426;-76
2022/10/18 08:49:58;;;;;;;1.63;1.63;;;20.70;43.40;;;;;;4949444;29;20448;-76
2022/10/18 08:52:42;;;;;;;4.03;2.30;;;20.60;44.10;;;;;;4950583;29;20901;-77
2022/10/18 08:55:23;;;;;;;3.40;2.20;;;20.60;44.70;;;;;;4950824;29;20983;-77
2022/10/18 08:57:50;;;;;;;1.67;1.60;;;20.50;44.80;;;;;;4949342;29;20455;-76
2022/10/18 09:00:17;;;;;;;1.60;1.40;;;20.90;44.40;;;;;;4958904;28;21010;-77
2022/10/18 09:02:59;;;;;;;1.70;1.50;;;20.90;43.50;;;;;;4961471;28;20443;-78
2022/10/18 09:05:34;;;;;;;2.23;1.80;;;21.10;43.20;;;;;;4961857;28;20439;-78
2022/10/18 09:08:21;;;;;;;1.53;1.50;;;21.70;42.80;;;;;;4968615;28;20423;-77
2022/10/18 09:11:02;;;;;;;2.00;1.67;;;22.00;41.60;;;;;;4946632;28;20973;-77
2022/10/18 09:13:36;;;;;;;1.50;1.40;;;22.30;40.70;;;;;;4942738;28;20848;-77
2022/10/18 09:16:05;;;;;;;1.63;1.53;;;22.50;40.20;;;;;;4953759;28;20465;-77
2022/10/18 09:18:58;;;;;;;1.93;1.83;;;22.50;40.20;;;;;;4962611;28;20472;-77
2022/10/18 09:21:41;;;;;;;1.60;1.50;;;22.20;40.70;;;;;;4988661;28;20439;-76
2022/10/18 09:24:30;;;;;;;1.60;1.60;;;22.40;40.40;;;;;;4991883;28;20453;-77
2022/10/18 09:27:07;;;;;;;3.00;1.93;;;22.60;39.90;;;;;;4995591;28;20419;-76
2022/10/18 09:29:52;;;;;;;2.57;1.70;;;22.60;40.30;;;;;;4995728;28;20397;-77
2022/10/18 09:32:45;;;;;;;2.47;1.97;;;23.30;38.70;;;;;;4991885;28;20445;-78
2022/10/18 09:35:19;;;;;;;1.87;1.77;;;23.20;39.30;;;;;;5008180;28;20468;-77
2022/10/18 09:37:46;;;;;;;1.37;1.30;;;23.00;39.00;;;;;;4995908;28;20405;-76
2022/10/18 09:40:17;;;;;;;1.93;1.73;;;22.60;40.50;;;;;;4995889;28;20405;-77
2022/10/18 09:43:04;;;;;;;2.00;1.70;;;22.80;40.40;;;;;;4994624;28;20409;-77
2022/10/18 09:45:38;;;;;;;1.53;1.50;;;22.60;40.20;;;;;;4987429;28;20420;-76
2022/10/18 09:48:21;;;;;;;1.80;1.50;;;22.60;40.60;;;;;;4995421;28;20410;-77
2022/10/18 09:51:02;;;;;;;2.20;1.80;;;23.00;40.30;;;;;;4995235;28;20626;-77
2022/10/18 09:53:58;;;;;;;3.60;2.03;;;23.20;40.20;;;;;;4993795;28;20449;-77
2022/10/18 09:56:37;;;;;;;1.57;1.50;;;23.40;39.10;;;;;;4994492;28;20518;-77
2022/10/18 09:59:02;;;;;;;4.17;1.60;;;22.80;40.80;;;;;;4995125;28;20405;-77
2022/10/18 10:01:30;;;;;;;2.37;1.70;;;23.00;40.70;;;;;;4994836;28;20405;-76
2022/10/18 10:03:56;;;;;;;1.70;1.53;;;22.70;41.70;;;;;;4994292;28;20650;-78
2022/10/18 10:06:24;;;;;;;2.73;2.03;;;22.80;42.20;;;;;;4992731;28;20466;-77
2022/10/18 10:09:14;;;;;;;2.30;2.03;;;22.70;41.60;;;;;;4990918;28;20437;-76
2022/10/18 10:11:58;;;;;;;3.00;1.70;;;22.60;41.40;;;;;;4986671;28;20438;-78
2022/10/18 10:14:29;;;;;;;2.10;1.73;;;22.50;41.90;;;;;;4990525;28;20460;-76
2022/10/18 10:17:10;;;;;;;1.70;1.50;;;22.80;41.20;;;;;;4993548;28;20420;-76
2022/10/18 10:19:59;;;;;;;2.33;1.67;;;22.10;42.30;;;;;;4975216;28;20470;-76
2022/10/18 10:22:34;;;;;;;2.03;1.83;;;22.00;43.00;;;;;;4975255;28;20406;-76
2022/10/18 10:25:01;;;;;;;2.13;1.47;;;21.70;43.40;;;;;;4973550;28;20461;-77
2022/10/18 10:27:29;;;;;;;1.40;1.40;;;22.00;43.50;;;;;;4991020;28;20429;-76
2022/10/18 10:29:58;;;;;;;1.47;1.43;;;22.60;41.90;;;;;;4993697;28;20528;-77
2022/10/18 10:32:27;;;;;;;1.60;1.50;;;23.00;41.00;;;;;;4991942;28;20429;-77
2022/10/18 10:34:53;;;;;;;1.97;1.73;;;23.00;41.40;;;;;;4994390;28;20457;-76
2022/10/18 10:37:23;;;;;;;2.67;1.60;;;22.70;41.10;;;;;;4994332;28;20497;-77
2022/10/18 10:40:13;;;;;;;3.30;2.33;;;22.40;41.80;;;;;;4994305;28;21040;-76
2022/10/18 10:43:15;;;;;;;2.70;2.13;;;22.10;43.60;;;;;;4987264;28;20469;-76
2022/10/18 10:45:56;;;;;;;1.70;1.60;;;22.40;42.80;;;;;;4987825;28;20515;-77
2022/10/18 10:48:24;;;;;;;1.80;1.37;;;22.70;41.80;;;;;;4994464;28;20458;-76
2022/10/18 10:51:06;;;;;;;2.03;1.40;;;23.20;40.30;;;;;;4994112;28;20905;-77
2022/10/18 10:54:00;;;;;;;1.53;1.50;;;23.20;40.10;;;;;;4993303;28;20984;-77
2022/10/18 10:56:32;;;;;;;2.07;1.50;;;23.40;39.50;;;;;;4993062;28;20436;-76
2022/10/18 10:59:19;;;;;;;1.87;1.70;;;23.90;39.10;;;;;;4993055;28;20528;-77
2022/10/18 11:01:48;;;;;;;2.03;1.80;;;24.70;37.60;;;;;;4987560;28;20444;-78
2022/10/18 11:04:29;;;;;;;2.07;1.70;;;24.50;36.70;;;;;;4993001;28;20824;-77
2022/10/18 11:07:16;;;;;;;2.03;1.50;;;24.70;36.90;;;;;;4993837;28;20416;-76
2022/10/18 11:10:04;;;;;;;1.97;1.50;;;25.00;36.30;;;;;;4992449;28;20845;-77
2022/10/18 11:12:35;;;;;;;1.83;1.57;;;25.50;33.00;;;;;;4984341;28;20449;-78
2022/10/18 11:15:12;;;;;;;1.70;1.47;;;24.20;36.50;;;;;;4993510;28;20488;-78
2022/10/18 11:17:50;;;;;;;2.70;1.50;;;24.80;34.20;;;;;;4992240;28;20452;-77
2022/10/18 11:20:23;;;;;;;1.93;1.50;;;24.30;35.50;;;;;;4992416;28;20409;-78
2022/10/18 11:22:55;;;;;;;1.60;1.50;;;23.70;36.70;;;;;;4991943;28;20463;-78
2022/10/18 11:25:24;;;;;;;3.10;1.60;;;24.40;35.00;;;;;;4992410;28;20491;-77
2022/10/18 11:28:02;;;;;;;1.80;1.33;;;25.10;33.00;;;;;;4992355;28;20421;-77
2022/10/18 11:30:54;;;;;;;1.50;1.40;;;25.40;31.80;;;;;;4993314;28;20451;-77
2022/10/18 11:33:28;;;;;;;1.50;1.43;;;24.60;33.70;;;;;;4991558;28;20475;-77
2022/10/18 11:36:03;;;;;;;1.40;1.40;;;24.40;35.40;;;;;;4993318;28;20433;-77
2022/10/18 11:38:59;;;;;;;2.63;1.53;;;25.10;32.50;;;;;;4992583;28;20405;-78
2022/10/18 11:41:40;;;;;;;1.53;1.40;;;25.40;32.00;;;;;;4992070;28;20487;-78
2022/10/18 11:44:20;;;;;;;1.53;1.50;;;25.10;31.70;;;;;;4991424;28;20531;-77
2022/10/18 11:47:00;;;;;;;1.60;1.40;;;24.50;33.70;;;;;;4991456;28;20441;-76
2022/10/18 11:49:53;;;;;;;5.70;2.23;;;24.70;34.00;;;;;;4992759;28;20849;-77
2022/10/18 11:52:38;;;;;;;1.80;1.70;;;24.70;33.20;;;;;;4991848;28;20449;-77
2022/10/18 11:55:11;;;;;;;1.73;1.23;;;24.50;33.70;;;;;;4989222;28;20852;-76
2022/10/18 11:58:00;;;;;;;1.60;1.30;;;24.40;34.30;;;;;;4989918;28;20443;-77
2022/10/18 12:00:38;;;;;;;1.40;1.40;;;24.10;35.00;;;;;;4989398;28;20436;-77
2022/10/18 12:03:28;;;;;;;2.53;1.53;;;24.40;33.70;;;;;;5006931;28;20511;-76
2022/10/18 12:05:57;;;;;;;1.50;1.33;;;23.90;34.80;;;;;;4986438;28;20452;-77
2022/10/18 12:08:30;;;;;;;1.60;1.50;;;23.90;35.50;;;;;;4992441;28;20419;-79
2022/10/18 12:10:58;;;;;;;1.47;1.40;;;24.70;34.30;;;;;;4991894;28;20444;-77
2022/10/18 12:13:59;;;;;;;1.90;1.50;;;25.10;31.40;;;;;;4992378;28;20767;-77
2022/10/18 12:16:29;;;;;;;1.73;1.40;;;25.30;32.80;;;;;;4968992;28;20449;-78
2022/10/18 12:18:59;;;;;;;1.77;1.60;;;25.10;32.60;;;;;;4970551;28;20525;-79
2022/10/18 12:21:29;;;;;;;1.83;1.70;;;25.80;31.10;;;;;;4969622;28;20783;-77
2022/10/18 12:23:59;;;;;;;1.60;1.43;;;24.70;32.90;;;;;;4970049;28;20453;-77
2022/10/18 12:26:27;;;;;;;1.40;1.40;;;24.30;33.90;;;;;;4968446;28;20540;-77
2022/10/18 12:29:05;;;;;;;3.40;1.70;;;25.20;32.50;;;;;;4968978;28;20969;-76
2022/10/18 12:31:42;;;;;;;1.70;1.43;;;24.70;32.60;;;;;;4967530;28;20492;-77
2022/10/18 12:34:25;;;;;;;1.50;1.30;;;24.60;32.90;;;;;;4970129;28;20531;-77
2022/10/18 12:37:02;;;;;;;1.80;1.50;;;24.50;32.90;;;;;;4968741;28;20505;-77
2022/10/18 12:39:37;;;;;;;1.60;1.50;;;24.40;33.00;;;;;;4969970;28;20438;-77
2022/10/18 12:42:03;;;;;;;1.40;1.40;;;24.30;33.20;;;;;;4968812;28;20452;-77
2022/10/18 12:44:33;;;;;;;1.40;1.33;;;24.40;33.00;;;;;;4969187;28;20497;-77
2022/10/18 12:47:02;;;;;;;1.30;1.20;;;24.10;32.90;;;;;;4970302;28;20422;-78
2022/10/18 12:49:31;;;;;;;2.20;1.70;;;23.70;33.80;;;;;;4968963;28;20506;-78
2022/10/18 12:52:02;;;;;;;1.73;1.50;;;24.00;33.30;;;;;;4976457;28;20540;-78
2022/10/18 12:54:36;;;;;;;3.13;1.73;;;24.40;33.00;;;;;;4991333;28;20472;-76
2022/10/18 12:57:16;;;;;;;1.83;1.50;;;24.70;32.30;;;;;;4992222;28;20494;-78
2022/10/18 12:59:41;;;;;;;1.50;1.30;;;24.40;32.20;;;;;;4990577;28;20405;-77
2022/10/18 13:02:19;;;;;;;1.90;1.43;;;24.40;32.90;;;;;;4989714;28;20439;-76
2022/10/18 13:04:45;;;;;;;1.47;1.40;;;24.50;32.10;;;;;;4991586;28;20215;-78
2022/10/18 13:07:18;;;;;;;1.30;1.17;;;25.30;30.30;;;;;;4992264;28;20773;-78
2022/10/18 13:10:13;;;;;;;2.60;1.70;;;25.20;30.90;;;;;;4990776;28;20491;-76
2022/10/18 13:12:54;;;;;;;1.80;1.33;;;25.10;29.60;;;;;;4986140;28;20579;-77
2022/10/18 13:15:41;;;;;;;1.30;1.20;;;24.40;32.10;;;;;;4991531;28;21088;-76